sensor_id;sensor_type;location;lat;lon;timestamp;P1;durP1;ratioP1;P2;durP2;ratioP2
37169;SDS011;23062;13.952;100.608;2023-07-16T00:03:52;13.00;;;9.00;;
37169;SDS011;23062;13.952;100.608;2023-07-16T00:08:26;15.00;;;11.00;;
37169;SDS011;23062;13.952;100.608;2023-07-16T00:13:00;14.00;;;10.00;;
37169;SDS011;23062;13.952;100.608;2023-07-16T00:17:33;13.00;;;9.00;;
37169;SDS011;23062;13.952;100.608;2023-07-16T00:22:06;9.00;;;6.00;;
37169;SDS011;23062;13.952;100.608;2023-07-16T00:27:05;10.00;;;7.00;;
37169;SDS011;23062;13.952;100.608;2023-07-16T00:31:32;9.00;;;7.00;;
37169;SDS011;23062;13.952;100.608;2023-07-16T00:35:59;12.00;;;9.00;;
37169;SDS011;23062;13.952;100.608;2023-07-16T00:40:33;9.00;;;6.00;;
37169;SDS011;23062;13.952;100.608;2023-07-16T00:45:01;13.00;;;9.00;;
37169;SDS011;23062;13.952;100.608;2023-07-16T00:49:43;11.00;;;8.00;;
37169;SDS011;23062;13.952;100.608;2023-07-16T00:54:12;13.00;;;9.00;;
37169;SDS011;23062;13.952;100.608;2023-07-16T00:58:39;12.00;;;9.00;;
37169;SDS011;23062;13.952;100.608;2023-07-16T01:03:09;11.00;;;8.00;;
37169;SDS011;23062;13.952;100.608;2023-07-16T01:07:58;12.00;;;9.00;;
37169;SDS011;23062;13.952;100.608;2023-07-16T01:12:26;13.00;;;9.00;;
37169;SDS011;23062;13.952;100.608;2023-07-16T01:16:58;14.00;;;10.00;;
37169;SDS011;23062;13.952;100.608;2023-07-16T01:26:23;16.00;;;12.00;;
37169;SDS011;23062;13.952;100.608;2023-07-16T01:30:50;17.00;;;12.00;;
37169;SDS011;23062;13.952;100.608;2023-07-16T01:35:18;20.00;;;14.00;;
37169;SDS011;23062;13.952;100.608;2023-07-16T01:39:45;20.00;;;14.00;;
37169;SDS011;23062;13.952;100.608;2023-07-16T01:44:19;14.00;;;10.00;;
37169;SDS011;23062;13.952;100.608;2023-07-16T01:48:46;16.00;;;11.00;;
37169;SDS011;23062;13.952;100.608;2023-07-16T01:53:12;14.00;;;11.00;;
37169;SDS011;23062;13.952;100.608;2023-07-16T01:57:43;14.00;;;9.33;;
37169;SDS011;23062;13.952;100.608;2023-07-16T02:02:10;15.00;;;11.00;;
37169;SDS011;23062;13.952;100.608;2023-07-16T02:06:40;14.00;;;10.00;;
37169;SDS011;23062;13.952;100.608;2023-07-16T02:11:14;19.00;;;13.00;;
37169;SDS011;23062;13.952;100.608;2023-07-16T02:15:40;17.00;;;13.00;;
37169;SDS011;23062;13.952;100.608;2023-07-16T02:20:17;14.00;;;10.00;;
37169;SDS011;23062;13.952;100.608;2023-07-16T02:24:45;14.00;;;10.00;;
37169;SDS011;23062;13.952;100.608;2023-07-16T02:29:11;16.00;;;12.00;;
37169;SDS011;23062;13.952;100.608;2023-07-16T02:33:37;15.00;;;11.00;;
37169;SDS011;23062;13.952;100.608;2023-07-16T02:38:34;17.00;;;13.00;;
37169;SDS011;23062;13.952;100.608;2023-07-16T02:43:02;17.00;;;12.00;;
37169;SDS011;23062;13.952;100.608;2023-07-16T02:52:12;12.00;;;9.00;;
37169;SDS011;23062;13.952;100.608;2023-07-16T02:56:40;17.00;;;12.00;;
37169;SDS011;23062;13.952;100.608;2023-07-16T03:01:12;15.00;;;11.00;;
37169;SDS011;23062;13.952;100.608;2023-07-16T03:05:39;14.00;;;10.00;;
37169;SDS011;23062;13.952;100.608;2023-07-16T03:10:07;16.00;;;12.00;;
37169;SDS011;23062;13.952;100.608;2023-07-16T03:14:34;14.00;;;10.00;;
37169;SDS011;23062;13.952;100.608;2023-07-16T03:19:07;15.00;;;11.00;;
37169;SDS011;23062;13.952;100.608;2023-07-16T03:23:33;14.00;;;10.00;;
37169;SDS011;23062;13.952;100.608;2023-07-16T03:28:08;13.00;;;10.00;;
37169;SDS011;23062;13.952;100.608;2023-07-16T03:32:41;13.00;;;10.00;;
37169;SDS011;23062;13.952;100.608;2023-07-16T03:37:15;12.00;;;9.00;;
37169;SDS011;23062;13.952;100.608;2023-07-16T03:41:41;14.00;;;10.00;;
37169;SDS011;23062;13.952;100.608;2023-07-16T03:46:10;15.00;;;11.00;;
37169;SDS011;23062;13.952;100.608;2023-07-16T03:50:37;18.00;;;14.00;;
37169;SDS011;23062;13.952;100.608;2023-07-16T03:55:09;16.00;;;12.00;;
37169;SDS011;23062;13.952;100.608;2023-07-16T03:59:35;21.00;;;15.00;;
37169;SDS011;23062;13.952;100.608;2023-07-16T04:04:12;16.00;;;12.00;;
37169;SDS011;23062;13.952;100.608;2023-07-16T04:09:19;21.00;;;15.00;;
37169;SDS011;23062;13.952;100.608;2023-07-16T04:14:05;22.00;;;16.00;;
37169;SDS011;23062;13.952;100.608;2023-07-16T04:18:36;22.00;;;17.00;;
37169;SDS011;23062;13.952;100.608;2023-07-16T04:23:43;23.00;;;18.00;;
37169;SDS011;23062;13.952;100.608;2023-07-16T04:28:12;19.00;;;14.00;;
37169;SDS011;23062;13.952;100.608;2023-07-16T04:32:44;18.00;;;14.00;;
37169;SDS011;23062;13.952;100.608;2023-07-16T04:37:23;15.00;;;11.00;;
37169;SDS011;23062;13.952;100.608;2023-07-16T04:41:54;17.00;;;12.00;;
37169;SDS011;23062;13.952;100.608;2023-07-16T04:47:36;14.00;;;11.00;;
37169;SDS011;23062;13.952;100.608;2023-07-16T04:52:10;17.00;;;13.00;;
37169;SDS011;23062;13.952;100.608;2023-07-16T04:56:41;16.00;;;12.00;;
37169;SDS011;23062;13.952;100.608;2023-07-16T05:01:08;16.00;;;12.00;;
37169;SDS011;23062;13.952;100.608;2023-07-16T05:05:52;20.00;;;14.00;;
37169;SDS011;23062;13.952;100.608;2023-07-16T05:10:56;23.00;;;15.87;;
37169;SDS011;23062;13.952;100.608;2023-07-16T05:15:24;21.00;;;16.00;;
37169;SDS011;23062;13.952;100.608;2023-07-16T05:19:56;18.00;;;13.00;;
37169;SDS011;23062;13.952;100.608;2023-07-16T05:24:21;15.00;;;11.00;;
37169;SDS011;23062;13.952;100.608;2023-07-16T05:28:49;15.00;;;11.00;;
37169;SDS011;23062;13.952;100.608;2023-07-16T05:33:24;13.00;;;9.00;;
37169;SDS011;23062;13.952;100.608;2023-07-16T05:38:30;13.00;;;9.00;;
37169;SDS011;23062;13.952;100.608;2023-07-16T05:43:06;11.00;;;8.00;;
37169;SDS011;23062;13.952;100.608;2023-07-16T05:47:37;11.00;;;8.00;;
37169;SDS011;23062;13.952;100.608;2023-07-16T05:52:11;13.00;;;9.00;;
37169;SDS011;23062;13.952;100.608;2023-07-16T05:56:38;14.00;;;10.00;;
37169;SDS011;23062;13.952;100.608;2023-07-16T06:01:06;15.00;;;11.00;;
37169;SDS011;23062;13.952;100.608;2023-07-16T06:05:35;12.00;;;8.00;;
37169;SDS011;23062;13.952;100.608;2023-07-16T06:10:11;13.00;;;9.00;;
37169;SDS011;23062;13.952;100.608;2023-07-16T06:15:01;13.00;;;9.00;;
37169;SDS011;23062;13.952;100.608;2023-07-16T06:19:56;12.00;;;9.00;;
37169;SDS011;23062;13.952;100.608;2023-07-16T06:24:48;17.00;;;13.00;;
37169;SDS011;23062;13.952;100.608;2023-07-16T06:29:22;18.00;;;14.00;;
37169;SDS011;23062;13.952;100.608;2023-07-16T06:33:50;17.00;;;12.00;;
37169;SDS011;23062;13.952;100.608;2023-07-16T06:38:23;17.00;;;13.00;;
37169;SDS011;23062;13.952;100.608;2023-07-16T06:42:50;16.00;;;11.00;;
37169;SDS011;23062;13.952;100.608;2023-07-16T06:47:25;17.00;;;12.00;;
37169;SDS011;23062;13.952;100.608;2023-07-16T06:51:54;15.00;;;11.00;;
37169;SDS011;23062;13.952;100.608;2023-07-16T06:56:20;14.00;;;10.00;;
37169;SDS011;23062;13.952;100.608;2023-07-16T07:00:45;17.00;;;12.00;;
37169;SDS011;23062;13.952;100.608;2023-07-16T07:05:12;13.00;;;10.00;;
37169;SDS011;23062;13.952;100.608;2023-07-16T07:09:37;12.00;;;9.00;;
37169;SDS011;23062;13.952;100.608;2023-07-16T07:14:04;11.00;;;8.00;;
37169;SDS011;23062;13.952;100.608;2023-07-16T07:18:33;12.00;;;9.00;;
37169;SDS011;23062;13.952;100.608;2023-07-16T07:23:06;13.00;;;10.00;;
37169;SDS011;23062;13.952;100.608;2023-07-16T07:27:54;14.00;;;10.00;;
37169;SDS011;23062;13.952;100.608;2023-07-16T07:32:24;13.00;;;10.00;;
37169;SDS011;23062;13.952;100.608;2023-07-16T07:37:07;11.00;;;8.00;;
37169;SDS011;23062;13.952;100.608;2023-07-16T07:41:34;11.00;;;8.00;;
37169;SDS011;23062;13.952;100.608;2023-07-16T07:46:01;12.00;;;9.00;;
37169;SDS011;23062;13.952;100.608;2023-07-16T07:50:32;11.00;;;8.00;;
37169;SDS011;23062;13.952;100.608;2023-07-16T07:55:00;12.00;;;9.00;;
37169;SDS011;23062;13.952;100.608;2023-07-16T07:59:27;11.00;;;8.00;;
37169;SDS011;23062;13.952;100.608;2023-07-16T08:04:01;13.00;;;9.00;;
37169;SDS011;23062;13.952;100.608;2023-07-16T08:08:45;13.00;;;8.40;;
37169;SDS011;23062;13.952;100.608;2023-07-16T08:13:12;12.00;;;8.00;;
37169;SDS011;23062;13.952;100.608;2023-07-16T08:18:00;9.00;;;6.00;;
37169;SDS011;23062;13.952;100.608;2023-07-16T08:22:28;12.00;;;9.00;;
37169;SDS011;23062;13.952;100.608;2023-07-16T08:26:55;16.00;;;10.27;;
37169;SDS011;23062;13.952;100.608;2023-07-16T08:32:00;10.00;;;7.00;;
37169;SDS011;23062;13.952;100.608;2023-07-16T08:36:27;13.00;;;9.00;;
37169;SDS011;23062;13.952;100.608;2023-07-16T08:40:55;12.00;;;9.00;;
37169;SDS011;23062;13.952;100.608;2023-07-16T08:45:30;12.00;;;9.00;;
37169;SDS011;23062;13.952;100.608;2023-07-16T08:50:02;15.00;;;11.00;;
37169;SDS011;23062;13.952;100.608;2023-07-16T08:54:29;13.00;;;9.00;;
37169;SDS011;23062;13.952;100.608;2023-07-16T08:58:56;14.00;;;10.00;;
37169;SDS011;23062;13.952;100.608;2023-07-16T09:03:24;13.00;;;10.00;;
37169;SDS011;23062;13.952;100.608;2023-07-16T09:07:53;17.00;;;13.00;;
37169;SDS011;23062;13.952;100.608;2023-07-16T09:12:20;17.00;;;13.00;;
37169;SDS011;23062;13.952;100.608;2023-07-16T09:16:53;19.00;;;14.00;;
37169;SDS011;23062;13.952;100.608;2023-07-16T09:21:19;16.00;;;12.00;;
37169;SDS011;23062;13.952;100.608;2023-07-16T09:25:45;15.00;;;11.00;;
37169;SDS011;23062;13.952;100.608;2023-07-16T09:30:17;15.00;;;11.00;;
37169;SDS011;23062;13.952;100.608;2023-07-16T09:34:52;13.00;;;9.00;;
37169;SDS011;23062;13.952;100.608;2023-07-16T09:39:17;14.00;;;10.00;;
37169;SDS011;23062;13.952;100.608;2023-07-16T09:43:49;13.00;;;10.00;;
37169;SDS011;23062;13.952;100.608;2023-07-16T09:48:42;13.00;;;9.00;;
37169;SDS011;23062;13.952;100.608;2023-07-16T09:53:15;11.00;;;8.00;;
37169;SDS011;23062;13.952;100.608;2023-07-16T09:59:42;12.00;;;9.00;;
37169;SDS011;23062;13.952;100.608;2023-07-16T10:04:19;13.00;;;9.00;;
37169;SDS011;23062;13.952;100.608;2023-07-16T10:09:01;13.00;;;9.00;;
37169;SDS011;23062;13.952;100.608;2023-07-16T10:14:04;12.00;;;9.00;;
37169;SDS011;23062;13.952;100.608;2023-07-16T10:20:27;12.00;;;9.00;;
37169;SDS011;23062;13.952;100.608;2023-07-16T10:26:57;14.00;;;10.00;;
37169;SDS011;23062;13.952;100.608;2023-07-16T10:32:51;14.00;;;11.00;;
37169;SDS011;23062;13.952;100.608;2023-07-16T10:38:40;14.00;;;11.00;;
37169;SDS011;23062;13.952;100.608;2023-07-16T10:43:08;15.00;;;11.00;;
37169;SDS011;23062;13.952;100.608;2023-07-16T10:47:37;19.00;;;13.00;;
37169;SDS011;23062;13.952;100.608;2023-07-16T10:52:04;17.00;;;13.00;;
37169;SDS011;23062;13.952;100.608;2023-07-16T10:56:36;16.00;;;12.00;;
37169;SDS011;23062;13.952;100.608;2023-07-16T11:01:08;19.00;;;13.00;;
37169;SDS011;23062;13.952;100.608;2023-07-16T11:05:34;16.00;;;12.00;;
37169;SDS011;23062;13.952;100.608;2023-07-16T11:10:00;16.00;;;12.00;;
37169;SDS011;23062;13.952;100.608;2023-07-16T11:14:27;19.00;;;14.00;;
37169;SDS011;23062;13.952;100.608;2023-07-16T11:18:56;16.00;;;12.00;;
37169;SDS011;23062;13.952;100.608;2023-07-16T11:23:28;16.00;;;12.00;;
37169;SDS011;23062;13.952;100.608;2023-07-16T11:28:01;18.00;;;13.00;;
37169;SDS011;23062;13.952;100.608;2023-07-16T11:37:12;21.00;;;16.00;;
37169;SDS011;23062;13.952;100.608;2023-07-16T11:41:53;27.00;;;21.00;;
37169;SDS011;23062;13.952;100.608;2023-07-16T11:46:21;28.00;;;20.00;;
37169;SDS011;23062;13.952;100.608;2023-07-16T11:51:05;23.00;;;18.00;;
37169;SDS011;23062;13.952;100.608;2023-07-16T11:55:32;24.00;;;17.00;;
37169;SDS011;23062;13.952;100.608;2023-07-16T12:00:02;18.00;;;13.00;;
37169;SDS011;23062;13.952;100.608;2023-07-16T12:04:30;18.00;;;13.00;;
37169;SDS011;23062;13.952;100.608;2023-07-16T12:09:03;20.00;;;14.00;;
37169;SDS011;23062;13.952;100.608;2023-07-16T12:13:28;18.00;;;13.00;;
37169;SDS011;23062;13.952;100.608;2023-07-16T12:17:58;19.00;;;13.00;;
37169;SDS011;23062;13.952;100.608;2023-07-16T12:22:33;17.00;;;12.00;;
37169;SDS011;23062;13.952;100.608;2023-07-16T12:27:10;14.00;;;10.00;;
37169;SDS011;23062;13.952;100.608;2023-07-16T12:31:36;14.00;;;11.00;;
37169;SDS011;23062;13.952;100.608;2023-07-16T12:36:02;13.00;;;10.00;;
37169;SDS011;23062;13.952;100.608;2023-07-16T12:40:33;18.00;;;14.00;;
37169;SDS011;23062;13.952;100.608;2023-07-16T12:45:10;18.00;;;13.00;;
37169;SDS011;23062;13.952;100.608;2023-07-16T12:49:36;18.00;;;13.00;;
37169;SDS011;23062;13.952;100.608;2023-07-16T12:54:10;16.00;;;12.00;;
37169;SDS011;23062;13.952;100.608;2023-07-16T12:58:38;17.00;;;12.00;;
37169;SDS011;23062;13.952;100.608;2023-07-16T13:03:07;17.00;;;12.00;;
37169;SDS011;23062;13.952;100.608;2023-07-16T13:46:57;59.00;;;47.00;;
37169;SDS011;23062;13.952;100.608;2023-07-16T13:51:33;56.00;;;42.00;;
37169;SDS011;23062;13.952;100.608;2023-07-16T13:57:04;68.00;;;52.00;;
37169;SDS011;23062;13.952;100.608;2023-07-16T14:01:31;82.00;;;61.00;;
37169;SDS011;23062;13.952;100.608;2023-07-16T14:05:59;73.00;;;52.27;;
37169;SDS011;23062;13.952;100.608;2023-07-16T14:12:22;106.00;;;84.00;;
37169;SDS011;23062;13.952;100.608;2023-07-16T14:16:48;90.00;;;67.00;;
37169;SDS011;23062;13.952;100.608;2023-07-16T14:21:21;88.00;;;69.00;;
37169;SDS011;23062;13.952;100.608;2023-07-16T14:26:01;74.00;;;58.00;;
37169;SDS011;23062;13.952;100.608;2023-07-16T14:30:32;76.00;;;60.00;;
37169;SDS011;23062;13.952;100.608;2023-07-16T14:34:58;60.00;;;47.00;;
37169;SDS011;23062;13.952;100.608;2023-07-16T14:39:37;74.00;;;55.00;;
37169;SDS011;23062;13.952;100.608;2023-07-16T14:44:05;46.00;;;36.00;;
37169;SDS011;23062;13.952;100.608;2023-07-16T14:48:32;65.00;;;51.00;;
37169;SDS011;23062;13.952;100.608;2023-07-16T14:53:06;62.00;;;48.00;;
37169;SDS011;23062;13.952;100.608;2023-07-16T14:57:40;56.00;;;42.00;;
37169;SDS011;23062;13.952;100.608;2023-07-16T15:02:10;51.00;;;40.00;;
37169;SDS011;23062;13.952;100.608;2023-07-16T15:06:52;54.00;;;41.00;;
37169;SDS011;23062;13.952;100.608;2023-07-16T15:11:35;60.00;;;47.00;;
37169;SDS011;23062;13.952;100.608;2023-07-16T15:18:59;52.00;;;41.00;;
37169;SDS011;23062;13.952;100.608;2023-07-16T15:25:21;66.00;;;50.00;;
37169;SDS011;23062;13.952;100.608;2023-07-16T15:29:56;72.00;;;57.00;;
37169;SDS011;23062;13.952;100.608;2023-07-16T15:34:59;83.00;;;62.00;;
37169;SDS011;23062;13.952;100.608;2023-07-16T15:39:31;69.00;;;54.00;;
37169;SDS011;23062;13.952;100.608;2023-07-16T15:44:01;71.00;;;55.00;;
37169;SDS011;23062;13.952;100.608;2023-07-16T15:48:38;97.00;;;72.00;;
37169;SDS011;23062;13.952;100.608;2023-07-16T15:56:44;95.00;;;74.00;;
37169;SDS011;23062;13.952;100.608;2023-07-16T16:06:17;56.00;;;44.00;;
37169;SDS011;23062;13.952;100.608;2023-07-16T16:22:30;45.00;;;35.00;;
37169;SDS011;23062;13.952;100.608;2023-07-16T16:27:03;32.00;;;25.00;;
37169;SDS011;23062;13.952;100.608;2023-07-16T16:31:30;43.00;;;34.00;;
37169;SDS011;23062;13.952;100.608;2023-07-16T16:36:02;41.00;;;30.00;;
37169;SDS011;23062;13.952;100.608;2023-07-16T16:44:52;63.00;;;47.00;;
37169;SDS011;23062;13.952;100.608;2023-07-16T16:49:26;42.00;;;32.00;;
37169;SDS011;23062;13.952;100.608;2023-07-16T16:53:54;35.00;;;26.00;;
37169;SDS011;23062;13.952;100.608;2023-07-16T16:58:20;49.00;;;37.00;;
37169;SDS011;23062;13.952;100.608;2023-07-16T17:02:55;86.00;;;65.00;;
37169;SDS011;23062;13.952;100.608;2023-07-16T17:07:27;45.00;;;34.00;;
37169;SDS011;23062;13.952;100.608;2023-07-16T17:11:59;105.00;;;78.00;;
37169;SDS011;23062;13.952;100.608;2023-07-16T17:16:32;69.00;;;54.00;;
37169;SDS011;23062;13.952;100.608;2023-07-16T17:20:59;85.00;;;67.00;;
37169;SDS011;23062;13.952;100.608;2023-07-16T17:25:33;31.00;;;23.00;;
37169;SDS011;23062;13.952;100.608;2023-07-16T17:30:03;30.00;;;22.00;;
37169;SDS011;23062;13.952;100.608;2023-07-16T17:34:30;32.00;;;24.00;;
37169;SDS011;23062;13.952;100.608;2023-07-16T17:39:01;22.00;;;15.87;;
37169;SDS011;23062;13.952;100.608;2023-07-16T17:43:36;26.00;;;19.00;;
37169;SDS011;23062;13.952;100.608;2023-07-16T17:51:42;24.00;;;18.00;;
37169;SDS011;23062;13.952;100.608;2023-07-16T17:56:12;20.00;;;14.00;;
37169;SDS011;23062;13.952;100.608;2023-07-16T18:00:40;20.00;;;16.00;;
37169;SDS011;23062;13.952;100.608;2023-07-16T18:05:13;18.00;;;13.00;;
37169;SDS011;23062;13.952;100.608;2023-07-16T18:09:39;18.00;;;13.00;;
37169;SDS011;23062;13.952;100.608;2023-07-16T18:14:05;15.00;;;11.00;;
37169;SDS011;23062;13.952;100.608;2023-07-16T18:18:35;12.00;;;9.00;;
37169;SDS011;23062;13.952;100.608;2023-07-16T18:23:19;12.00;;;9.00;;
37169;SDS011;23062;13.952;100.608;2023-07-16T18:27:52;12.00;;;8.00;;
37169;SDS011;23062;13.952;100.608;2023-07-16T18:32:21;10.00;;;6.53;;
37169;SDS011;23062;13.952;100.608;2023-07-16T18:39:07;11.00;;;7.00;;
37169;SDS011;23062;13.952;100.608;2023-07-16T18:44:00;8.00;;;5.00;;
37169;SDS011;23062;13.952;100.608;2023-07-16T19:01:46;5.00;;;3.00;;
37169;SDS011;23062;13.952;100.608;2023-07-16T19:06:18;8.00;;;5.00;;
37169;SDS011;23062;13.952;100.608;2023-07-16T19:10:44;6.00;;;4.00;;
37169;SDS011;23062;13.952;100.608;2023-07-16T19:15:11;6.00;;;4.00;;
37169;SDS011;23062;13.952;100.608;2023-07-16T19:19:37;4.00;;;3.00;;
37169;SDS011;23062;13.952;100.608;2023-07-16T19:24:14;5.00;;;4.00;;
37169;SDS011;23062;13.952;100.608;2023-07-16T19:28:41;4.00;;;3.00;;
37169;SDS011;23062;13.952;100.608;2023-07-16T19:33:07;4.00;;;2.00;;
37169;SDS011;23062;13.952;100.608;2023-07-16T19:37:45;4.00;;;3.00;;
37169;SDS011;23062;13.952;100.608;2023-07-16T19:48:05;2.00;;;1.00;;
37169;SDS011;23062;13.952;100.608;2023-07-16T19:53:33;4.00;;;1.87;;
37169;SDS011;23062;13.952;100.608;2023-07-16T20:04:06;3.00;;;2.00;;
37169;SDS011;23062;13.952;100.608;2023-07-16T20:31:05;2.00;;;1.00;;
37169;SDS011;23062;13.952;100.608;2023-07-16T20:40:10;2.00;;;1.00;;
37169;SDS011;23062;13.952;100.608;2023-07-16T20:49:02;2.00;;;1.00;;
37169;SDS011;23062;13.952;100.608;2023-07-16T20:53:33;1.00;;;0.00;;
37169;SDS011;23062;13.952;100.608;2023-07-16T20:59:04;1.00;;;0.00;;
37169;SDS011;23062;13.952;100.608;2023-07-16T21:04:19;1.00;;;0.00;;
37169;SDS011;23062;13.952;100.608;2023-07-16T21:09:06;1.00;;;0.00;;
37169;SDS011;23062;13.952;100.608;2023-07-16T21:13:40;1.00;;;0.00;;
37169;SDS011;23062;13.952;100.608;2023-07-16T21:19:16;2.00;;;1.00;;
37169;SDS011;23062;13.952;100.608;2023-07-16T21:23:47;1.00;;;0.00;;
37169;SDS011;23062;13.952;100.608;2023-07-16T21:28:13;1.00;;;0.00;;
37169;SDS011;23062;13.952;100.608;2023-07-16T21:32:39;3.00;;;2.00;;
37169;SDS011;23062;13.952;100.608;2023-07-16T21:37:08;4.00;;;2.00;;
37169;SDS011;23062;13.952;100.608;2023-07-16T21:41:41;1.00;;;0.00;;
37169;SDS011;23062;13.952;100.608;2023-07-16T21:46:10;1.00;;;0.00;;
37169;SDS011;23062;13.952;100.608;2023-07-16T21:50:36;1.00;;;0.00;;
37169;SDS011;23062;13.952;100.608;2023-07-16T21:55:03;2.00;;;1.00;;
37169;SDS011;23062;13.952;100.608;2023-07-16T21:59:34;2.00;;;1.00;;
37169;SDS011;23062;13.952;100.608;2023-07-16T22:04:10;1.00;;;0.00;;
37169;SDS011;23062;13.952;100.608;2023-07-16T22:08:42;1.00;;;0.00;;
37169;SDS011;23062;13.952;100.608;2023-07-16T22:13:08;2.00;;;1.00;;
37169;SDS011;23062;13.952;100.608;2023-07-16T22:17:41;3.00;;;1.00;;
37169;SDS011;23062;13.952;100.608;2023-07-16T22:22:12;2.00;;;1.00;;
37169;SDS011;23062;13.952;100.608;2023-07-16T22:26:38;3.00;;;2.00;;
37169;SDS011;23062;13.952;100.608;2023-07-16T22:31:13;1.00;;;0.00;;
37169;SDS011;23062;13.952;100.608;2023-07-16T22:35:46;3.00;;;2.00;;
37169;SDS011;23062;13.952;100.608;2023-07-16T22:40:19;3.00;;;2.00;;
37169;SDS011;23062;13.952;100.608;2023-07-16T22:44:46;1.00;;;0.00;;
37169;SDS011;23062;13.952;100.608;2023-07-16T22:49:18;1.00;;;0.00;;
37169;SDS011;23062;13.952;100.608;2023-07-16T22:53:44;6.00;;;4.00;;
37169;SDS011;23062;13.952;100.608;2023-07-16T22:58:17;2.00;;;1.00;;
37169;SDS011;23062;13.952;100.608;2023-07-16T23:02:45;2.00;;;1.00;;
37169;SDS011;23062;13.952;100.608;2023-07-16T23:07:20;2.00;;;1.00;;
37169;SDS011;23062;13.952;100.608;2023-07-16T23:11:45;4.00;;;2.00;;
37169;SDS011;23062;13.952;100.608;2023-07-16T23:16:16;3.00;;;2.00;;
37169;SDS011;23062;13.952;100.608;2023-07-16T23:20:49;2.00;;;1.00;;
37169;SDS011;23062;13.952;100.608;2023-07-16T23:25:19;4.00;;;3.00;;
37169;SDS011;23062;13.952;100.608;2023-07-16T23:29:46;2.00;;;1.00;;
37169;SDS011;23062;13.952;100.608;2023-07-16T23:34:18;3.00;;;2.00;;
37169;SDS011;23062;13.952;100.608;2023-07-16T23:38:47;2.00;;;1.00;;
37169;SDS011;23062;13.952;100.608;2023-07-16T23:43:14;1.00;;;0.00;;
37169;SDS011;23062;13.952;100.608;2023-07-16T23:47:44;2.00;;;1.00;;
37169;SDS011;23062;13.952;100.608;2023-07-16T23:52:10;2.00;;;1.00;;
37169;SDS011;23062;13.952;100.608;2023-07-16T23:56:38;1.00;;;0.00;;
